createdAt,value
2019-05-02T00:02:30.035Z,99401.06
2019-05-02T00:05:00.064Z,99394.24
2019-05-02T00:07:29.908Z,99381.16
2019-05-02T00:09:59.794Z,99393.09
2019-05-02T00:12:29.787Z,99386.48
2019-05-02T00:15:02.006Z,99385.09
2019-05-02T00:17:33.815Z,99372.88
2019-05-02T00:20:05.304Z,99374.77
2019-05-02T00:22:35.207Z,99371.84
2019-05-02T00:25:10.993Z,99372.27
2019-05-02T00:27:38.933Z,99372.82
2019-05-02T00:30:10.558Z,99378.57
2019-05-02T00:32:40.285Z,99375.53
2019-05-02T00:35:10.202Z,99377.95
2019-05-02T00:37:40.038Z,99368.70
2019-05-02T00:40:10.044Z,99384.52
2019-05-02T00:42:39.901Z,99368.94
2019-05-02T00:45:09.789Z,99360.00
2019-05-02T00:47:59.152Z,99357.77
2019-05-02T00:50:30.623Z,99359.41
2019-05-02T00:53:00.465Z,99366.21
2019-05-02T00:55:33.888Z,99358.86
2019-05-02T00:58:01.636Z,99361.29
2019-05-02T01:00:33.017Z,99359.36
2019-05-02T01:03:03.321Z,99364.22
2019-05-02T01:05:33.699Z,99358.19
2019-05-02T01:08:04.673Z,99355.17
2019-05-02T01:10:34.476Z,99352.47
2019-05-02T01:13:04.293Z,99362.27
2019-05-02T10:44:59.022Z,99706.64
2019-05-02T10:47:28.807Z,99719.40
2019-05-02T10:50:02.300Z,99711.30
2019-05-02T10:52:34.210Z,99716.53
2019-05-02T10:55:05.353Z,99709.41
2019-05-02T10:57:35.290Z,99716.05
2019-05-02T11:00:08.196Z,99722.20
2019-05-02T11:02:41.890Z,99725.08
2019-05-02T11:05:16.871Z,99728.28
2019-05-02T11:07:44.636Z,99717.93
2019-05-02T11:10:14.794Z,99728.63
2019-05-02T11:12:47.003Z,99716.95
2019-05-02T11:15:26.814Z,99719.58
2019-05-02T11:17:57.228Z,99716.83
2019-05-02T11:20:27.303Z,99713.09
2019-05-02T11:22:57.241Z,99706.33
2019-05-02T11:25:27.164Z,99706.59
2019-05-02T11:27:57.246Z,99710.00
2019-05-02T11:30:28.639Z,99720.12
2019-05-02T11:32:58.625Z,99729.43
2019-05-02T11:35:31.697Z,99734.21
2019-05-02T11:38:02.609Z,99729.66
2019-05-02T11:40:32.509Z,99752.22
2019-05-02T11:43:06.676Z,99739.71
2019-05-02T11:45:34.032Z,99752.36
2019-05-02T11:48:09.324Z,99739.56
2019-05-02T11:50:35.841Z,99726.42
2019-05-02T11:53:09.280Z,99735.60
2019-05-02T11:55:37.428Z,99743.47
2019-05-02T11:58:08.559Z,99730.73
2019-05-02T12:00:39.811Z,99739.99
2019-05-02T12:03:21.966Z,99726.77
2019-05-02T12:05:53.437Z,99760.09
2019-05-02T12:08:23.379Z,99764.44
2019-05-02T12:10:53.511Z,99725.88
2019-05-02T12:13:23.441Z,99762.91
2019-05-02T12:15:53.368Z,99762.83
2019-05-02T12:18:23.547Z,99761.61
2019-05-02T12:20:53.465Z,99747.73
2019-05-02T12:23:24.417Z,99743.03
2019-05-02T12:25:54.452Z,99749.20
2019-05-02T12:28:24.385Z,99747.14
2019-05-02T12:30:54.220Z,99746.66
2019-05-02T12:33:25.794Z,99753.84
2019-05-02T12:35:55.721Z,99752.98
2019-05-02T12:38:25.769Z,99731.55
2019-05-02T12:40:58.019Z,99742.00
2019-05-02T12:43:28.088Z,99752.34
2019-05-02T12:45:58.022Z,99725.97
2019-05-02T12:48:27.944Z,99709.63
2019-05-02T12:50:59.435Z,99729.50
2019-05-02T12:53:29.363Z,99750.13
2019-05-02T12:55:59.389Z,99741.31
2019-05-02T12:58:29.288Z,99722.22
2019-05-02T13:00:59.227Z,99731.01
2019-05-02T13:03:43.644Z,99740.76
2019-05-02T13:06:13.751Z,99748.00
2019-05-02T13:08:52.102Z,99738.47
2019-05-02T13:11:31.990Z,99730.64
2019-05-02T13:14:02.181Z,99751.88
2019-05-02T13:16:33.676Z,99739.66
2019-05-02T13:19:06.281Z,99751.71
2019-05-02T13:21:57.976Z,99753.71
2019-05-02T13:24:33.521Z,99757.84
2019-05-02T13:27:06.594Z,99751.22
2019-05-02T13:29:36.421Z,99746.20
2019-05-02T13:32:08.694Z,99733.94
2019-05-02T13:34:48.685Z,99736.87
2019-05-02T13:37:17.608Z,99722.81
2019-05-02T13:40:04.433Z,99740.45
2019-05-02T13:42:34.371Z,99737.48
2019-05-02T13:45:07.128Z,99729.61
2019-05-02T13:47:36.998Z,99736.39
2019-05-02T13:50:08.101Z,99738.09
2019-05-02T13:52:38.189Z,99738.84
2019-05-02T13:55:11.716Z,99739.18
2019-05-02T13:57:46.887Z,99741.66
2019-05-02T14:00:15.854Z,99726.30
2019-05-02T14:02:46.940Z,99739.12
2019-05-02T14:05:17.068Z,99743.16
2019-05-02T14:07:55.674Z,99753.59
2019-05-02T14:10:39.347Z,99746.12
2019-05-02T14:13:06.111Z,99741.16
2019-05-02T14:15:37.771Z,99751.75
2019-05-02T14:18:07.816Z,99743.13
2019-05-02T14:20:37.883Z,99744.11
2019-05-02T14:23:07.977Z,99729.12
2019-05-02T14:25:37.940Z,99728.64
2019-05-02T14:28:07.960Z,99737.95
2019-05-02T14:30:43.349Z,99734.55
2019-05-02T14:33:11.767Z,99735.86
2019-05-02T14:35:42.583Z,99721.08
2019-05-02T14:38:13.516Z,99719.56
2019-05-02T14:41:03.205Z,99719.70
2019-05-02T14:43:53.304Z,99742.77
2019-05-02T14:46:28.852Z,99741.16
2019-05-02T14:48:57.127Z,99735.05
2019-05-02T14:51:28.133Z,99720.64
2019-05-02T14:54:05.835Z,99721.39
2019-05-02T14:56:47.805Z,99726.83
2019-05-02T14:59:19.733Z,99720.02
2019-05-02T15:01:48.506Z,99719.71
2019-05-02T15:04:18.450Z,99717.22
2019-05-02T15:06:48.380Z,99709.30
2019-05-02T15:09:24.862Z,99710.62
2019-05-02T15:11:59.095Z,99708.08
2019-05-02T15:14:32.669Z,99695.53
2019-05-02T15:17:03.767Z,99704.86
2019-05-02T15:19:33.898Z,99702.82
2019-05-02T15:22:03.830Z,99707.68
2019-05-02T15:24:37.335Z,99714.38
2019-05-02T15:27:12.110Z,99711.66
2019-05-02T15:29:42.873Z,99708.77
2019-05-02T15:32:25.555Z,99702.71
2019-05-02T15:35:02.491Z,99738.06
2019-05-02T15:37:35.826Z,99702.22
2019-05-02T15:42:38.336Z,99701.95
2019-05-02T15:45:08.632Z,99708.81
2019-05-02T15:47:41.565Z,99715.91
2019-05-02T15:50:14.745Z,99718.47
2019-05-02T15:52:57.341Z,99722.86
2019-05-02T15:55:24.635Z,99720.95
2019-05-02T15:57:54.674Z,99718.23
2019-05-02T16:00:26.501Z,99736.00
2019-05-02T16:03:00.808Z,99726.96
2019-05-02T16:05:28.063Z,99721.19
2019-05-02T16:08:05.292Z,99720.94
2019-05-02T16:10:31.599Z,99751.21
2019-05-02T16:13:03.243Z,99748.93
2019-05-02T16:15:33.275Z,99748.05
2019-05-02T16:18:05.209Z,99759.19
2019-05-02T16:21:04.768Z,99756.97
2019-05-02T16:23:32.770Z,99770.52
2019-05-02T16:26:03.804Z,99771.82
2019-05-02T16:28:32.406Z,99765.76
2019-05-02T16:31:03.978Z,99766.27
2019-05-02T16:33:34.971Z,99776.83
2019-05-02T16:36:05.115Z,99779.84
2019-05-02T16:38:35.273Z,99785.72
2019-05-02T16:41:09.723Z,99775.66
2019-05-02T16:43:36.869Z,99778.58
2019-05-02T16:46:11.922Z,99792.66
2019-05-02T16:48:39.204Z,99786.31
2019-05-02T16:51:27.648Z,99797.41
2019-05-02T16:53:42.702Z,99804.56
2019-05-02T16:56:12.561Z,99808.38
2019-05-02T16:58:45.976Z,99810.84
2019-05-02T17:01:19.754Z,99823.84
2019-05-02T17:03:45.834Z,99813.60
2019-05-02T17:06:16.929Z,99823.14
2019-05-02T17:08:57.469Z,99815.67
2019-05-02T17:11:27.888Z,99827.13
2019-05-02T17:13:56.837Z,99833.74
2019-05-02T17:16:26.779Z,99833.10
2019-05-02T17:18:56.722Z,99838.78
2019-05-02T17:21:31.438Z,99847.82
2019-05-02T17:23:58.417Z,99854.17
2019-05-02T17:26:29.373Z,99854.14
2019-05-02T17:28:59.286Z,99863.88
2019-05-02T17:31:29.273Z,99869.13
2019-05-02T17:33:59.296Z,99871.25
2019-05-02T17:36:30.624Z,99874.19
2019-05-02T17:39:06.774Z,99880.36
2019-05-02T17:41:37.021Z,99882.02
2019-05-02T17:44:05.719Z,99886.72
2019-05-02T17:46:36.688Z,99891.08
2019-05-02T17:49:06.568Z,99896.22
2019-05-02T17:52:04.981Z,99896.67
2019-05-02T17:54:26.398Z,99897.40
2019-05-02T17:56:57.407Z,99904.61
2019-05-02T17:59:34.433Z,99905.12
2019-05-02T18:02:01.836Z,99911.28
2019-05-02T18:04:32.487Z,99909.74
2019-05-02T18:07:01.888Z,99916.81
2019-05-02T18:09:35.030Z,99916.97
2019-05-02T18:12:07.280Z,99916.30
2019-05-02T18:14:34.946Z,99918.47
2019-05-02T18:17:04.900Z,99922.38
2019-05-02T18:19:34.826Z,99926.84
2019-05-02T18:22:08.300Z,99934.25
2019-05-02T18:24:37.335Z,99936.18
2019-05-02T18:27:08.413Z,99939.42
2019-05-02T18:29:42.431Z,99938.16
2019-05-02T18:32:10.026Z,99939.84
2019-05-02T18:34:41.803Z,99934.41
2019-05-02T18:37:11.630Z,99938.44
2019-05-02T18:39:46.184Z,99942.44
2019-05-02T18:42:16.646Z,99952.92
2019-05-02T18:44:48.310Z,99951.16
2019-05-02T18:47:20.179Z,99947.66
2019-05-02T18:49:53.766Z,99941.16
2019-05-02T18:52:23.839Z,99963.08
2019-05-02T18:54:52.738Z,99955.64
2019-05-02T18:57:25.990Z,99956.92
2019-05-02T18:59:56.501Z,99959.41
2019-05-02T19:02:26.395Z,99951.95
2019-05-02T19:04:57.553Z,99952.50
2019-05-02T19:07:33.026Z,99960.99
2019-05-02T19:10:04.270Z,99960.33
2019-05-02T19:12:32.815Z,99960.47
2019-05-02T19:15:06.864Z,99966.28
2019-05-02T19:17:38.573Z,99966.48
2019-05-02T19:20:19.102Z,99967.88
2019-05-02T19:22:54.759Z,99955.30
2019-05-02T19:25:22.674Z,99956.59
2019-05-02T19:27:57.574Z,99960.65
2019-05-02T19:30:32.497Z,99963.10
2019-05-02T19:33:03.715Z,99959.20
2019-05-02T19:35:37.669Z,99959.00
2019-05-02T19:38:05.801Z,99959.58
2019-05-02T19:40:35.752Z,99958.48
2019-05-02T19:43:07.669Z,99958.31
2019-05-02T19:45:37.451Z,99958.45
2019-05-02T19:48:07.389Z,99962.75
2019-05-02T19:50:43.470Z,99955.84
2019-05-02T19:53:18.060Z,99958.36
2019-05-02T19:55:42.906Z,99967.23
2019-05-02T19:58:13.159Z,99972.75
2019-05-02T20:00:46.181Z,99987.48
2019-05-02T20:03:21.833Z,99992.41
2019-05-02T20:05:48.420Z,99995.61
2019-05-02T20:08:21.320Z,99997.67
2019-05-02T20:10:54.149Z,99991.02
2019-05-02T20:13:28.032Z,99988.41
2019-05-02T20:15:57.154Z,99989.11
2019-05-02T20:18:28.165Z,99987.44
2019-05-02T20:20:59.547Z,99997.36
2019-05-02T20:23:34.891Z,99998.07
2019-05-02T20:26:01.166Z,100001.88
2019-05-02T20:28:31.831Z,100002.95
2019-05-02T20:31:02.976Z,99999.28
2019-05-02T20:33:33.011Z,100001.73
2019-05-02T20:36:03.055Z,99999.09
2019-05-02T20:38:32.975Z,99995.95
2019-05-02T20:41:03.106Z,99999.42
2019-05-02T20:43:33.972Z,99994.69
2019-05-02T20:46:04.217Z,99996.66
2019-05-02T20:48:34.152Z,99991.73
2019-05-02T20:51:04.083Z,99988.50
2019-05-02T20:53:34.365Z,100008.73
2019-05-02T20:56:04.766Z,100010.37
2019-05-02T20:58:34.705Z,100018.83
2019-05-02T21:01:08.699Z,100017.02
2019-05-02T21:03:36.731Z,99997.52
2019-05-02T21:06:08.393Z,100004.14
2019-05-02T21:08:43.039Z,100012.36
2019-05-02T21:11:13.276Z,100011.91
2019-05-02T21:13:43.222Z,100008.23
2019-05-02T21:16:13.143Z,100008.75
2019-05-02T21:18:43.080Z,100018.81
2019-05-02T21:21:13.130Z,100010.69
2019-05-02T21:23:47.304Z,100010.03
2019-05-02T21:26:14.740Z,100006.19
2019-05-02T21:28:46.236Z,100008.14
2019-05-02T21:31:16.140Z,99994.61
2019-05-02T21:33:46.065Z,99996.09
2019-05-02T21:36:16.115Z,100004.62
2019-05-02T21:38:46.037Z,99997.78
2019-05-02T21:41:16.173Z,99997.70
2019-05-02T21:43:46.086Z,99991.91
2019-05-02T21:46:16.049Z,99994.45
2019-05-02T21:48:45.897Z,99995.66
2019-05-02T21:51:20.069Z,99993.63
2019-05-02T21:54:02.856Z,99992.89
2019-05-02T21:56:37.073Z,100002.58
2019-05-02T21:59:12.184Z,99987.31
2019-05-02T22:01:51.743Z,99998.98
2019-05-02T22:04:22.717Z,100002.36
2019-05-02T22:06:52.960Z,100000.32
2019-05-02T22:09:23.386Z,100000.60
2019-05-02T22:11:53.347Z,100001.35
2019-05-02T22:14:23.172Z,100003.75
2019-05-02T22:16:53.227Z,100017.64
2019-05-02T22:19:23.121Z,100025.55
2019-05-02T22:21:53.070Z,100019.71
2019-05-02T22:24:23.016Z,100030.52
2019-05-02T22:26:52.945Z,100031.84
2019-05-02T22:29:24.016Z,100027.59
2019-05-02T22:31:54.578Z,100013.61
2019-05-02T22:34:23.802Z,100005.77
2019-05-02T22:36:54.314Z,100000.39
2019-05-02T22:39:35.196Z,99997.33
2019-05-02T22:42:04.849Z,99996.97
2019-05-02T22:44:34.670Z,99996.77
2019-05-02T22:47:04.700Z,99997.80
2019-05-02T22:49:34.529Z,99990.95
2019-05-02T22:52:04.672Z,99990.91
2019-05-02T22:54:34.709Z,99990.66
2019-05-02T22:57:04.856Z,99995.89
2019-05-02T22:59:34.789Z,99990.36
2019-05-02T23:02:04.715Z,99991.39
2019-05-02T23:04:34.655Z,99996.83
2019-05-02T23:07:04.583Z,100007.00
2019-05-02T23:09:34.529Z,100015.00
2019-05-02T23:12:04.756Z,100022.65
2019-05-02T23:14:34.654Z,100016.92
2019-05-02T23:17:04.628Z,100017.48
2019-05-02T23:19:34.774Z,100020.98
2019-05-02T23:22:05.300Z,100022.75
2019-05-02T23:24:52.084Z,100015.47
2019-05-02T23:27:39.864Z,100012.52
2019-05-02T23:30:14.225Z,100007.61
2019-05-02T23:32:44.333Z,100012.46
2019-05-02T23:35:14.270Z,100006.97
2019-05-02T23:37:44.202Z,100003.16
2019-05-02T23:40:14.450Z,100002.11
2019-05-02T23:42:44.493Z,100006.20
2019-05-02T23:45:14.514Z,100001.59
2019-05-02T23:47:44.413Z,99998.08
2019-05-02T23:50:14.788Z,99985.97
2019-05-02T23:52:44.732Z,99984.61
2019-05-02T23:55:14.638Z,99978.63
2019-05-02T23:57:44.596Z,99974.20
